sensor_id;sensor_type;location;lat;lon;timestamp;temperature;humidity
44121;DHT22;29783;52.504;13.478;2022-12-26T00:00:54;9.20;96.80
44121;DHT22;29783;52.504;13.478;2022-12-26T00:03:20;9.20;96.60
44121;DHT22;29783;52.504;13.478;2022-12-26T00:05:46;9.20;96.50
44121;DHT22;29783;52.504;13.478;2022-12-26T00:08:12;9.20;96.50
44121;DHT22;29783;52.504;13.478;2022-12-26T00:10:38;9.20;96.50
44121;DHT22;29783;52.504;13.478;2022-12-26T00:13:03;9.20;96.50
44121;DHT22;29783;52.504;13.478;2022-12-26T00:15:29;9.30;96.30
44121;DHT22;29783;52.504;13.478;2022-12-26T00:17:55;9.30;96.20
44121;DHT22;29783;52.504;13.478;2022-12-26T00:20:21;9.40;96.20
44121;DHT22;29783;52.504;13.478;2022-12-26T00:22:46;9.40;96.00
44121;DHT22;29783;52.504;13.478;2022-12-26T00:25:12;9.40;95.90
44121;DHT22;29783;52.504;13.478;2022-12-26T00:27:38;9.30;95.90
44121;DHT22;29783;52.504;13.478;2022-12-26T00:30:04;9.30;96.00
44121;DHT22;29783;52.504;13.478;2022-12-26T00:32:30;9.30;96.00
44121;DHT22;29783;52.504;13.478;2022-12-26T00:34:56;9.30;96.10
44121;DHT22;29783;52.504;13.478;2022-12-26T00:37:21;9.30;96.20
44121;DHT22;29783;52.504;13.478;2022-12-26T00:39:47;9.30;96.20
44121;DHT22;29783;52.504;13.478;2022-12-26T00:42:13;9.30;96.20
44121;DHT22;29783;52.504;13.478;2022-12-26T00:44:39;9.30;96.20
44121;DHT22;29783;52.504;13.478;2022-12-26T00:47:04;9.30;96.20
44121;DHT22;29783;52.504;13.478;2022-12-26T00:49:30;9.30;96.30
44121;DHT22;29783;52.504;13.478;2022-12-26T00:51:56;9.40;96.20
44121;DHT22;29783;52.504;13.478;2022-12-26T00:54:21;9.40;96.10
44121;DHT22;29783;52.504;13.478;2022-12-26T00:56:47;9.40;96.10
44121;DHT22;29783;52.504;13.478;2022-12-26T00:59:13;9.40;96.10
44121;DHT22;29783;52.504;13.478;2022-12-26T01:01:39;9.30;95.90
44121;DHT22;29783;52.504;13.478;2022-12-26T01:04:05;9.50;96.10
44121;DHT22;29783;52.504;13.478;2022-12-26T01:06:31;9.40;95.90
44121;DHT22;29783;52.504;13.478;2022-12-26T01:08:57;9.50;96.00
44121;DHT22;29783;52.504;13.478;2022-12-26T01:11:24;9.50;95.70
44121;DHT22;29783;52.504;13.478;2022-12-26T01:14:13;9.50;95.80
44121;DHT22;29783;52.504;13.478;2022-12-26T01:16:41;9.50;95.70
44121;DHT22;29783;52.504;13.478;2022-12-26T01:19:07;9.50;95.60
44121;DHT22;29783;52.504;13.478;2022-12-26T01:21:33;9.50;95.60
44121;DHT22;29783;52.504;13.478;2022-12-26T01:23:59;9.60;95.60
44121;DHT22;29783;52.504;13.478;2022-12-26T01:26:25;9.60;95.30
44121;DHT22;29783;52.504;13.478;2022-12-26T01:28:51;9.70;95.20
44121;DHT22;29783;52.504;13.478;2022-12-26T01:31:18;9.60;95.10
44121;DHT22;29783;52.504;13.478;2022-12-26T01:33:44;9.70;95.10
44121;DHT22;29783;52.504;13.478;2022-12-26T01:36:10;9.70;95.00
44121;DHT22;29783;52.504;13.478;2022-12-26T01:38:36;9.80;94.80
44121;DHT22;29783;52.504;13.478;2022-12-26T01:41:01;9.70;94.70
44121;DHT22;29783;52.504;13.478;2022-12-26T01:44:01;9.80;94.60
44121;DHT22;29783;52.504;13.478;2022-12-26T01:46:43;9.80;94.50
44121;DHT22;29783;52.504;13.478;2022-12-26T01:49:16;9.80;94.50
44121;DHT22;29783;52.504;13.478;2022-12-26T01:51:48;9.80;94.40
44121;DHT22;29783;52.504;13.478;2022-12-26T01:54:15;9.80;94.40
44121;DHT22;29783;52.504;13.478;2022-12-26T01:56:42;9.80;94.20
44121;DHT22;29783;52.504;13.478;2022-12-26T01:59:22;9.70;94.20
44121;DHT22;29783;52.504;13.478;2022-12-26T02:01:52;9.70;94.10
44121;DHT22;29783;52.504;13.478;2022-12-26T02:04:22;9.60;94.40
44121;DHT22;29783;52.504;13.478;2022-12-26T02:07:08;9.50;94.60
44121;DHT22;29783;52.504;13.478;2022-12-26T02:09:35;9.60;94.80
44121;DHT22;29783;52.504;13.478;2022-12-26T02:12:13;9.60;94.70
44121;DHT22;29783;52.504;13.478;2022-12-26T02:14:39;9.50;94.70
44121;DHT22;29783;52.504;13.478;2022-12-26T02:17:06;9.70;94.70
44121;DHT22;29783;52.504;13.478;2022-12-26T02:28:53;9.80;94.20
44121;DHT22;29783;52.504;13.478;2022-12-26T02:34:07;9.90;93.70
44121;DHT22;29783;52.504;13.478;2022-12-26T02:44:21;10.00;93.50
44121;DHT22;29783;52.504;13.478;2022-12-26T02:47:18;10.10;93.50
44121;DHT22;29783;52.504;13.478;2022-12-26T02:50:00;10.10;93.30
44121;DHT22;29783;52.504;13.478;2022-12-26T02:53:05;10.10;93.20
44121;DHT22;29783;52.504;13.478;2022-12-26T02:55:56;10.00;93.50
44121;DHT22;29783;52.504;13.478;2022-12-26T02:59:05;10.10;93.60
44121;DHT22;29783;52.504;13.478;2022-12-26T03:01:54;10.10;93.40
44121;DHT22;29783;52.504;13.478;2022-12-26T03:04:41;10.10;93.50
44121;DHT22;29783;52.504;13.478;2022-12-26T03:07:34;10.10;93.40
44121;DHT22;29783;52.504;13.478;2022-12-26T03:10:22;10.20;93.40
44121;DHT22;29783;52.504;13.478;2022-12-26T03:13:15;10.10;93.30
44121;DHT22;29783;52.504;13.478;2022-12-26T03:18:46;10.00;93.50
44121;DHT22;29783;52.504;13.478;2022-12-26T03:21:14;10.10;93.40
44121;DHT22;29783;52.504;13.478;2022-12-26T03:23:43;10.10;93.50
44121;DHT22;29783;52.504;13.478;2022-12-26T03:26:32;10.10;93.30
44121;DHT22;29783;52.504;13.478;2022-12-26T03:29:11;10.10;93.20
44121;DHT22;29783;52.504;13.478;2022-12-26T03:31:56;10.10;93.20
44121;DHT22;29783;52.504;13.478;2022-12-26T03:34:23;10.20;93.10
44121;DHT22;29783;52.504;13.478;2022-12-26T03:49:20;10.30;92.40
44121;DHT22;29783;52.504;13.478;2022-12-26T03:52:09;10.30;92.30
44121;DHT22;29783;52.504;13.478;2022-12-26T03:55:27;10.50;92.00
44121;DHT22;29783;52.504;13.478;2022-12-26T04:00:57;10.60;91.70
44121;DHT22;29783;52.504;13.478;2022-12-26T04:03:44;10.50;91.70
44121;DHT22;29783;52.504;13.478;2022-12-26T04:06:35;10.50;91.70
44121;DHT22;29783;52.504;13.478;2022-12-26T04:09:30;10.60;91.60
44121;DHT22;29783;52.504;13.478;2022-12-26T04:12:18;10.60;91.70
44121;DHT22;29783;52.504;13.478;2022-12-26T04:15:24;10.60;91.70
44121;DHT22;29783;52.504;13.478;2022-12-26T04:18:20;10.60;91.60
44121;DHT22;29783;52.504;13.478;2022-12-26T04:21:37;10.60;91.60
44121;DHT22;29783;52.504;13.478;2022-12-26T04:24:27;10.60;91.60
44121;DHT22;29783;52.504;13.478;2022-12-26T04:27:15;10.60;91.60
44121;DHT22;29783;52.504;13.478;2022-12-26T04:30:02;10.60;91.50
44121;DHT22;29783;52.504;13.478;2022-12-26T04:32:53;10.60;91.40
44121;DHT22;29783;52.504;13.478;2022-12-26T04:35:50;10.50;91.60
44121;DHT22;29783;52.504;13.478;2022-12-26T04:38:59;10.50;91.80
44121;DHT22;29783;52.504;13.478;2022-12-26T04:41:45;10.50;91.70
44121;DHT22;29783;52.504;13.478;2022-12-26T04:44:32;10.50;91.70
44121;DHT22;29783;52.504;13.478;2022-12-26T04:46:58;10.60;91.40
44121;DHT22;29783;52.504;13.478;2022-12-26T04:49:24;10.60;91.30
44121;DHT22;29783;52.504;13.478;2022-12-26T04:52:12;10.60;91.40
44121;DHT22;29783;52.504;13.478;2022-12-26T04:54:39;10.60;91.40
44121;DHT22;29783;52.504;13.478;2022-12-26T04:57:05;10.50;91.50
44121;DHT22;29783;52.504;13.478;2022-12-26T04:59:32;10.50;91.50
44121;DHT22;29783;52.504;13.478;2022-12-26T05:01:58;10.60;91.50
44121;DHT22;29783;52.504;13.478;2022-12-26T05:04:42;10.60;91.40
44121;DHT22;29783;52.504;13.478;2022-12-26T05:07:28;10.60;91.40
44121;DHT22;29783;52.504;13.478;2022-12-26T05:10:19;10.50;91.40
44121;DHT22;29783;52.504;13.478;2022-12-26T05:12:45;10.70;91.30
44121;DHT22;29783;52.504;13.478;2022-12-26T05:15:11;10.70;91.10
44121;DHT22;29783;52.504;13.478;2022-12-26T05:17:37;10.70;91.00
44121;DHT22;29783;52.504;13.478;2022-12-26T05:20:21;10.60;91.00
44121;DHT22;29783;52.504;13.478;2022-12-26T05:23:21;10.70;91.30
44121;DHT22;29783;52.504;13.478;2022-12-26T05:26:14;10.70;91.20
44121;DHT22;29783;52.504;13.478;2022-12-26T05:29:00;10.70;91.30
44121;DHT22;29783;52.504;13.478;2022-12-26T05:31:25;10.70;91.10
44121;DHT22;29783;52.504;13.478;2022-12-26T05:33:51;10.80;90.90
44121;DHT22;29783;52.504;13.478;2022-12-26T05:36:41;10.70;90.70
44121;DHT22;29783;52.504;13.478;2022-12-26T05:39:09;10.70;90.70
44121;DHT22;29783;52.504;13.478;2022-12-26T05:41:35;10.70;90.80
44121;DHT22;29783;52.504;13.478;2022-12-26T05:44:02;10.70;91.00
44121;DHT22;29783;52.504;13.478;2022-12-26T05:46:28;10.70;91.00
44121;DHT22;29783;52.504;13.478;2022-12-26T05:48:53;10.70;91.00
44121;DHT22;29783;52.504;13.478;2022-12-26T05:51:19;10.70;91.20
44121;DHT22;29783;52.504;13.478;2022-12-26T05:53:45;10.70;91.20
44121;DHT22;29783;52.504;13.478;2022-12-26T05:56:14;10.70;91.20
44121;DHT22;29783;52.504;13.478;2022-12-26T05:58:40;10.60;91.10
44121;DHT22;29783;52.504;13.478;2022-12-26T06:01:12;10.70;91.20
44121;DHT22;29783;52.504;13.478;2022-12-26T06:03:39;10.70;90.90
44121;DHT22;29783;52.504;13.478;2022-12-26T06:06:06;10.80;90.70
44121;DHT22;29783;52.504;13.478;2022-12-26T06:08:32;10.80;90.50
44121;DHT22;29783;52.504;13.478;2022-12-26T06:10:58;10.80;90.40
44121;DHT22;29783;52.504;13.478;2022-12-26T06:13:24;10.80;90.40
44121;DHT22;29783;52.504;13.478;2022-12-26T06:15:49;10.80;90.40
44121;DHT22;29783;52.504;13.478;2022-12-26T06:18:15;10.80;90.50
44121;DHT22;29783;52.504;13.478;2022-12-26T06:20:41;10.80;90.60
44121;DHT22;29783;52.504;13.478;2022-12-26T06:23:07;10.80;90.50
44121;DHT22;29783;52.504;13.478;2022-12-26T06:25:33;10.80;90.60
44121;DHT22;29783;52.504;13.478;2022-12-26T06:27:59;10.80;90.60
44121;DHT22;29783;52.504;13.478;2022-12-26T06:30:24;10.70;90.90
44121;DHT22;29783;52.504;13.478;2022-12-26T06:32:50;10.70;90.90
44121;DHT22;29783;52.504;13.478;2022-12-26T06:35:16;10.70;90.90
44121;DHT22;29783;52.504;13.478;2022-12-26T06:37:42;10.70;90.90
44121;DHT22;29783;52.504;13.478;2022-12-26T06:40:08;10.70;90.90
44121;DHT22;29783;52.504;13.478;2022-12-26T06:42:34;10.70;90.80
44121;DHT22;29783;52.504;13.478;2022-12-26T06:44:59;10.70;90.70
44121;DHT22;29783;52.504;13.478;2022-12-26T06:47:25;10.80;90.70
44121;DHT22;29783;52.504;13.478;2022-12-26T06:49:51;10.70;90.80
44121;DHT22;29783;52.504;13.478;2022-12-26T06:52:17;10.70;90.60
44121;DHT22;29783;52.504;13.478;2022-12-26T06:54:42;10.80;90.70
44121;DHT22;29783;52.504;13.478;2022-12-26T06:57:08;10.80;90.70
44121;DHT22;29783;52.504;13.478;2022-12-26T06:59:34;10.70;90.70
44121;DHT22;29783;52.504;13.478;2022-12-26T07:02:00;10.70;90.70
44121;DHT22;29783;52.504;13.478;2022-12-26T07:04:26;10.80;90.70
44121;DHT22;29783;52.504;13.478;2022-12-26T07:06:51;10.70;90.70
44121;DHT22;29783;52.504;13.478;2022-12-26T07:09:18;10.70;90.80
44121;DHT22;29783;52.504;13.478;2022-12-26T07:11:46;10.80;90.60
44121;DHT22;29783;52.504;13.478;2022-12-26T07:14:12;10.80;90.60
44121;DHT22;29783;52.504;13.478;2022-12-26T07:16:42;10.80;90.60
44121;DHT22;29783;52.504;13.478;2022-12-26T07:19:10;10.80;90.50
44121;DHT22;29783;52.504;13.478;2022-12-26T07:21:36;10.80;90.60
44121;DHT22;29783;52.504;13.478;2022-12-26T07:24:04;10.80;90.50
44121;DHT22;29783;52.504;13.478;2022-12-26T07:26:30;10.70;90.80
44121;DHT22;29783;52.504;13.478;2022-12-26T07:28:57;10.70;90.90
44121;DHT22;29783;52.504;13.478;2022-12-26T07:31:24;10.60;91.00
44121;DHT22;29783;52.504;13.478;2022-12-26T07:33:53;10.60;91.10
44121;DHT22;29783;52.504;13.478;2022-12-26T07:36:19;10.60;91.10
44121;DHT22;29783;52.504;13.478;2022-12-26T07:38:46;10.70;90.90
44121;DHT22;29783;52.504;13.478;2022-12-26T07:41:12;10.70;90.80
44121;DHT22;29783;52.504;13.478;2022-12-26T07:43:56;10.70;91.00
44121;DHT22;29783;52.504;13.478;2022-12-26T07:46:22;10.70;90.90
44121;DHT22;29783;52.504;13.478;2022-12-26T07:48:48;10.70;90.70
44121;DHT22;29783;52.504;13.478;2022-12-26T07:51:14;10.60;90.90
44121;DHT22;29783;52.504;13.478;2022-12-26T07:53:40;10.50;91.20
44121;DHT22;29783;52.504;13.478;2022-12-26T07:56:06;10.50;91.50
44121;DHT22;29783;52.504;13.478;2022-12-26T07:58:32;10.50;91.50
44121;DHT22;29783;52.504;13.478;2022-12-26T08:01:02;10.60;91.50
44121;DHT22;29783;52.504;13.478;2022-12-26T08:03:28;10.60;91.20
44121;DHT22;29783;52.504;13.478;2022-12-26T08:05:54;10.60;91.20
44121;DHT22;29783;52.504;13.478;2022-12-26T08:08:20;10.70;91.20
44121;DHT22;29783;52.504;13.478;2022-12-26T08:10:45;10.70;90.90
44121;DHT22;29783;52.504;13.478;2022-12-26T08:13:11;10.70;90.80
44121;DHT22;29783;52.504;13.478;2022-12-26T08:15:38;10.80;90.60
44121;DHT22;29783;52.504;13.478;2022-12-26T08:18:05;10.80;90.50
44121;DHT22;29783;52.504;13.478;2022-12-26T08:20:30;10.70;90.60
44121;DHT22;29783;52.504;13.478;2022-12-26T08:22:56;10.70;90.80
44121;DHT22;29783;52.504;13.478;2022-12-26T08:25:22;10.80;90.50
44121;DHT22;29783;52.504;13.478;2022-12-26T08:27:48;10.80;90.50
44121;DHT22;29783;52.504;13.478;2022-12-26T08:30:13;10.80;90.40
44121;DHT22;29783;52.504;13.478;2022-12-26T08:32:39;10.80;90.40
44121;DHT22;29783;52.504;13.478;2022-12-26T08:35:05;10.80;90.50
44121;DHT22;29783;52.504;13.478;2022-12-26T08:37:31;10.80;90.40
44121;DHT22;29783;52.504;13.478;2022-12-26T08:39:57;10.90;90.40
44121;DHT22;29783;52.504;13.478;2022-12-26T08:42:22;11.00;90.30
44121;DHT22;29783;52.504;13.478;2022-12-26T08:44:48;10.90;90.20
44121;DHT22;29783;52.504;13.478;2022-12-26T08:47:14;11.00;90.30
44121;DHT22;29783;52.504;13.478;2022-12-26T08:49:40;11.00;90.20
44121;DHT22;29783;52.504;13.478;2022-12-26T08:52:06;11.00;90.20
44121;DHT22;29783;52.504;13.478;2022-12-26T08:54:32;11.00;90.20
44121;DHT22;29783;52.504;13.478;2022-12-26T08:56:58;11.00;90.30
44121;DHT22;29783;52.504;13.478;2022-12-26T08:59:24;10.90;90.20
44121;DHT22;29783;52.504;13.478;2022-12-26T09:01:50;11.00;90.40
44121;DHT22;29783;52.504;13.478;2022-12-26T09:04:15;10.90;90.50
44121;DHT22;29783;52.504;13.478;2022-12-26T09:06:41;10.90;90.70
44121;DHT22;29783;52.504;13.478;2022-12-26T09:09:09;10.90;90.80
44121;DHT22;29783;52.504;13.478;2022-12-26T09:11:36;11.00;90.80
44121;DHT22;29783;52.504;13.478;2022-12-26T09:14:02;10.90;90.80
44121;DHT22;29783;52.504;13.478;2022-12-26T09:16:31;10.80;91.10
44121;DHT22;29783;52.504;13.478;2022-12-26T09:18:59;10.80;91.10
44121;DHT22;29783;52.504;13.478;2022-12-26T09:21:26;10.80;91.30
44121;DHT22;29783;52.504;13.478;2022-12-26T09:23:57;10.80;91.40
44121;DHT22;29783;52.504;13.478;2022-12-26T09:26:23;11.00;91.10
44121;DHT22;29783;52.504;13.478;2022-12-26T09:28:49;10.90;91.10
44121;DHT22;29783;52.504;13.478;2022-12-26T09:31:18;11.00;91.10
44121;DHT22;29783;52.504;13.478;2022-12-26T09:33:45;11.00;91.10
44121;DHT22;29783;52.504;13.478;2022-12-26T09:36:16;11.00;90.90
44121;DHT22;29783;52.504;13.478;2022-12-26T09:38:43;11.00;91.00
44121;DHT22;29783;52.504;13.478;2022-12-26T09:44:56;11.10;90.60
44121;DHT22;29783;52.504;13.478;2022-12-26T09:50:48;11.10;90.40
44121;DHT22;29783;52.504;13.478;2022-12-26T09:53:24;11.10;90.40
44121;DHT22;29783;52.504;13.478;2022-12-26T09:55:58;11.10;90.30
44121;DHT22;29783;52.504;13.478;2022-12-26T09:58:43;11.10;90.10
44121;DHT22;29783;52.504;13.478;2022-12-26T10:03:58;11.30;89.00
44121;DHT22;29783;52.504;13.478;2022-12-26T10:06:26;11.30;88.90
44121;DHT22;29783;52.504;13.478;2022-12-26T10:23:42;11.40;87.30
44121;DHT22;29783;52.504;13.478;2022-12-26T10:26:27;11.50;87.20
44121;DHT22;29783;52.504;13.478;2022-12-26T10:29:03;11.50;87.10
44121;DHT22;29783;52.504;13.478;2022-12-26T10:31:38;11.50;87.20
44121;DHT22;29783;52.504;13.478;2022-12-26T10:36:49;11.50;87.60
44121;DHT22;29783;52.504;13.478;2022-12-26T10:39:34;11.40;87.80
44121;DHT22;29783;52.504;13.478;2022-12-26T10:42:15;11.40;88.00
44121;DHT22;29783;52.504;13.478;2022-12-26T10:44:43;11.30;88.20
44121;DHT22;29783;52.504;13.478;2022-12-26T10:49:37;11.30;87.90
44121;DHT22;29783;52.504;13.478;2022-12-26T10:52:03;11.30;87.80
44121;DHT22;29783;52.504;13.478;2022-12-26T10:54:29;11.30;87.60
44121;DHT22;29783;52.504;13.478;2022-12-26T10:56:56;11.20;87.90
44121;DHT22;29783;52.504;13.478;2022-12-26T10:59:46;11.20;87.50
44121;DHT22;29783;52.504;13.478;2022-12-26T11:02:20;11.20;87.50
44121;DHT22;29783;52.504;13.478;2022-12-26T11:05:13;11.20;87.20
44121;DHT22;29783;52.504;13.478;2022-12-26T11:07:47;11.20;87.10
44121;DHT22;29783;52.504;13.478;2022-12-26T11:10:20;11.10;87.50
44121;DHT22;29783;52.504;13.478;2022-12-26T11:13:00;11.10;87.50
44121;DHT22;29783;52.504;13.478;2022-12-26T11:18:22;11.10;87.10
44121;DHT22;29783;52.504;13.478;2022-12-26T11:20:52;11.10;87.20
44121;DHT22;29783;52.504;13.478;2022-12-26T11:23:29;11.10;87.00
44121;DHT22;29783;52.504;13.478;2022-12-26T11:25:58;11.00;86.80
44121;DHT22;29783;52.504;13.478;2022-12-26T11:28:27;11.00;87.00
44121;DHT22;29783;52.504;13.478;2022-12-26T11:30:54;11.00;87.10
44121;DHT22;29783;52.504;13.478;2022-12-26T11:33:29;10.90;87.30
44121;DHT22;29783;52.504;13.478;2022-12-26T11:41:15;10.80;87.20
44121;DHT22;29783;52.504;13.478;2022-12-26T11:46:44;10.80;86.80
44121;DHT22;29783;52.504;13.478;2022-12-26T11:51:47;10.80;86.50
44121;DHT22;29783;52.504;13.478;2022-12-26T11:54:19;11.00;86.70
44121;DHT22;29783;52.504;13.478;2022-12-26T11:56:44;11.00;86.50
44121;DHT22;29783;52.504;13.478;2022-12-26T11:59:18;11.00;86.40
44121;DHT22;29783;52.504;13.478;2022-12-26T12:01:45;11.00;86.40
44121;DHT22;29783;52.504;13.478;2022-12-26T12:04:11;11.10;86.10
44121;DHT22;29783;52.504;13.478;2022-12-26T12:06:47;11.10;86.00
44121;DHT22;29783;52.504;13.478;2022-12-26T12:17:22;11.10;86.60
44121;DHT22;29783;52.504;13.478;2022-12-26T12:20:18;11.00;87.00
44121;DHT22;29783;52.504;13.478;2022-12-26T12:23:01;10.90;87.20
44121;DHT22;29783;52.504;13.478;2022-12-26T12:28:37;10.90;87.70
44121;DHT22;29783;52.504;13.478;2022-12-26T12:31:16;10.80;87.70
44121;DHT22;29783;52.504;13.478;2022-12-26T12:34:06;10.80;88.10
44121;DHT22;29783;52.504;13.478;2022-12-26T12:36:54;10.70;88.30
44121;DHT22;29783;52.504;13.478;2022-12-26T12:39:54;10.80;88.00
44121;DHT22;29783;52.504;13.478;2022-12-26T12:45:31;10.70;88.10
44121;DHT22;29783;52.504;13.478;2022-12-26T12:59:52;11.10;87.40
44121;DHT22;29783;52.504;13.478;2022-12-26T13:02:27;11.00;87.20
44121;DHT22;29783;52.504;13.478;2022-12-26T13:05:04;11.00;87.40
44121;DHT22;29783;52.504;13.478;2022-12-26T13:07:35;11.00;87.30
44121;DHT22;29783;52.504;13.478;2022-12-26T13:10:04;11.10;87.30
44121;DHT22;29783;52.504;13.478;2022-12-26T13:12:36;11.10;87.30
44121;DHT22;29783;52.504;13.478;2022-12-26T13:15:07;11.10;87.20
44121;DHT22;29783;52.504;13.478;2022-12-26T13:17:57;11.10;87.40
44121;DHT22;29783;52.504;13.478;2022-12-26T13:26:33;11.10;87.50
44121;DHT22;29783;52.504;13.478;2022-12-26T13:31:39;11.00;88.00
44121;DHT22;29783;52.504;13.478;2022-12-26T13:34:09;10.90;88.00
44121;DHT22;29783;52.504;13.478;2022-12-26T13:37:08;10.90;87.90
44121;DHT22;29783;52.504;13.478;2022-12-26T13:39:53;11.10;87.80
44121;DHT22;29783;52.504;13.478;2022-12-26T13:42:24;11.30;87.20
44121;DHT22;29783;52.504;13.478;2022-12-26T13:50:55;11.10;87.50
44121;DHT22;29783;52.504;13.478;2022-12-26T13:55:55;10.80;88.00
44121;DHT22;29783;52.504;13.478;2022-12-26T14:00:47;10.70;88.30
44121;DHT22;29783;52.504;13.478;2022-12-26T14:06:09;10.50;88.90
44121;DHT22;29783;52.504;13.478;2022-12-26T14:11:39;10.40;89.20
44121;DHT22;29783;52.504;13.478;2022-12-26T14:17:31;10.50;89.00
44121;DHT22;29783;52.504;13.478;2022-12-26T14:22:49;10.50;89.00
44121;DHT22;29783;52.504;13.478;2022-12-26T14:25:25;10.50;88.80
44121;DHT22;29783;52.504;13.478;2022-12-26T14:28:09;10.50;88.80
44121;DHT22;29783;52.504;13.478;2022-12-26T14:33:38;10.30;89.00
44121;DHT22;29783;52.504;13.478;2022-12-26T14:38:55;10.00;89.70
44121;DHT22;29783;52.504;13.478;2022-12-26T14:41:24;10.00;90.10
44121;DHT22;29783;52.504;13.478;2022-12-26T14:46:57;9.80;90.70
44121;DHT22;29783;52.504;13.478;2022-12-26T14:49:37;9.70;90.80
44121;DHT22;29783;52.504;13.478;2022-12-26T14:52:35;9.70;90.90
44121;DHT22;29783;52.504;13.478;2022-12-26T14:55:44;9.70;90.60
44121;DHT22;29783;52.504;13.478;2022-12-26T15:15:26;10.10;88.00
44121;DHT22;29783;52.504;13.478;2022-12-26T15:20:54;10.10;87.70
44121;DHT22;29783;52.504;13.478;2022-12-26T15:26:45;10.20;87.70
44121;DHT22;29783;52.504;13.478;2022-12-26T15:41:45;9.90;89.70
44121;DHT22;29783;52.504;13.478;2022-12-26T15:46:34;9.70;90.70
44121;DHT22;29783;52.504;13.478;2022-12-26T16:02:39;9.30;92.50
44121;DHT22;29783;52.504;13.478;2022-12-26T16:10:48;9.20;92.70
44121;DHT22;29783;52.504;13.478;2022-12-26T16:13:32;9.20;92.80
44121;DHT22;29783;52.504;13.478;2022-12-26T16:15:58;9.30;92.70
44121;DHT22;29783;52.504;13.478;2022-12-26T16:18:29;9.30;92.50
44121;DHT22;29783;52.504;13.478;2022-12-26T16:21:00;9.30;92.50
44121;DHT22;29783;52.504;13.478;2022-12-26T16:23:46;9.30;92.50
44121;DHT22;29783;52.504;13.478;2022-12-26T16:26:25;9.30;92.40
44121;DHT22;29783;52.504;13.478;2022-12-26T16:28:54;9.40;92.20
44121;DHT22;29783;52.504;13.478;2022-12-26T16:31:24;9.40;92.00
44121;DHT22;29783;52.504;13.478;2022-12-26T16:33:51;9.40;91.90
44121;DHT22;29783;52.504;13.478;2022-12-26T16:36:26;9.40;92.00
44121;DHT22;29783;52.504;13.478;2022-12-26T16:38:52;9.50;91.90
44121;DHT22;29783;52.504;13.478;2022-12-26T16:41:29;9.40;91.80
44121;DHT22;29783;52.504;13.478;2022-12-26T16:47:05;9.40;91.70
44121;DHT22;29783;52.504;13.478;2022-12-26T16:49:32;9.50;91.10
44121;DHT22;29783;52.504;13.478;2022-12-26T16:51:58;9.60;90.70
44121;DHT22;29783;52.504;13.478;2022-12-26T16:54:36;9.80;90.60
44121;DHT22;29783;52.504;13.478;2022-12-26T16:57:17;9.70;90.50
44121;DHT22;29783;52.504;13.478;2022-12-26T16:59:56;9.70;90.30
44121;DHT22;29783;52.504;13.478;2022-12-26T17:02:29;9.60;90.50
44121;DHT22;29783;52.504;13.478;2022-12-26T17:05:20;9.70;90.30
44121;DHT22;29783;52.504;13.478;2022-12-26T17:07:48;9.70;90.20
44121;DHT22;29783;52.504;13.478;2022-12-26T17:10:24;9.70;90.00
44121;DHT22;29783;52.504;13.478;2022-12-26T17:12:52;9.70;90.20
44121;DHT22;29783;52.504;13.478;2022-12-26T17:15:24;9.70;89.90
44121;DHT22;29783;52.504;13.478;2022-12-26T17:17:50;9.80;89.50
44121;DHT22;29783;52.504;13.478;2022-12-26T17:22:49;9.80;89.20
44121;DHT22;29783;52.504;13.478;2022-12-26T17:25:27;9.90;88.70
44121;DHT22;29783;52.504;13.478;2022-12-26T17:30:43;9.90;87.20
44121;DHT22;29783;52.504;13.478;2022-12-26T17:33:13;10.10;86.10
44121;DHT22;29783;52.504;13.478;2022-12-26T17:35:40;10.10;85.90
44121;DHT22;29783;52.504;13.478;2022-12-26T17:38:21;10.20;85.40
44121;DHT22;29783;52.504;13.478;2022-12-26T17:40:52;10.20;85.20
44121;DHT22;29783;52.504;13.478;2022-12-26T17:43:24;10.20;85.40
44121;DHT22;29783;52.504;13.478;2022-12-26T17:45:53;10.10;85.30
44121;DHT22;29783;52.504;13.478;2022-12-26T17:48:19;10.00;85.30
44121;DHT22;29783;52.504;13.478;2022-12-26T17:50:47;9.90;85.10
44121;DHT22;29783;52.504;13.478;2022-12-26T17:56:26;9.80;85.30
44121;DHT22;29783;52.504;13.478;2022-12-26T17:58:51;9.70;85.40
44121;DHT22;29783;52.504;13.478;2022-12-26T18:01:17;9.70;84.70
44121;DHT22;29783;52.504;13.478;2022-12-26T18:03:43;9.70;84.50
44121;DHT22;29783;52.504;13.478;2022-12-26T18:06:14;9.70;84.60
44121;DHT22;29783;52.504;13.478;2022-12-26T18:08:41;9.60;84.40
44121;DHT22;29783;52.504;13.478;2022-12-26T18:11:09;9.60;84.30
44121;DHT22;29783;52.504;13.478;2022-12-26T18:13:36;9.60;84.10
44121;DHT22;29783;52.504;13.478;2022-12-26T18:16:02;9.50;84.40
44121;DHT22;29783;52.504;13.478;2022-12-26T18:18:38;9.50;84.10
44121;DHT22;29783;52.504;13.478;2022-12-26T18:21:10;9.50;83.90
44121;DHT22;29783;52.504;13.478;2022-12-26T18:23:37;9.50;83.80
44121;DHT22;29783;52.504;13.478;2022-12-26T18:26:06;9.50;83.90
44121;DHT22;29783;52.504;13.478;2022-12-26T18:28:33;9.60;83.80
44121;DHT22;29783;52.504;13.478;2022-12-26T18:30:59;9.50;84.10
44121;DHT22;29783;52.504;13.478;2022-12-26T18:33:25;9.40;84.40
44121;DHT22;29783;52.504;13.478;2022-12-26T18:35:51;9.40;83.60
44121;DHT22;29783;52.504;13.478;2022-12-26T18:38:19;9.30;83.80
44121;DHT22;29783;52.504;13.478;2022-12-26T18:40:48;9.30;83.80
44121;DHT22;29783;52.504;13.478;2022-12-26T18:43:14;9.20;83.80
44121;DHT22;29783;52.504;13.478;2022-12-26T18:45:42;9.30;83.50
44121;DHT22;29783;52.504;13.478;2022-12-26T18:48:12;9.30;83.30
44121;DHT22;29783;52.504;13.478;2022-12-26T18:50:38;9.30;82.80
44121;DHT22;29783;52.504;13.478;2022-12-26T18:53:03;9.30;83.40
44121;DHT22;29783;52.504;13.478;2022-12-26T18:55:29;9.30;83.20
44121;DHT22;29783;52.504;13.478;2022-12-26T18:57:55;9.30;82.90
44121;DHT22;29783;52.504;13.478;2022-12-26T19:00:21;9.10;82.70
44121;DHT22;29783;52.504;13.478;2022-12-26T19:02:48;9.00;82.70
44121;DHT22;29783;52.504;13.478;2022-12-26T19:05:26;8.90;82.50
44121;DHT22;29783;52.504;13.478;2022-12-26T19:07:53;8.80;82.40
44121;DHT22;29783;52.504;13.478;2022-12-26T19:10:22;8.80;81.40
44121;DHT22;29783;52.504;13.478;2022-12-26T19:12:48;8.80;80.20
44121;DHT22;29783;52.504;13.478;2022-12-26T19:15:14;8.70;79.90
44121;DHT22;29783;52.504;13.478;2022-12-26T19:17:40;8.70;80.20
44121;DHT22;29783;52.504;13.478;2022-12-26T19:20:14;8.60;80.00
44121;DHT22;29783;52.504;13.478;2022-12-26T19:22:40;8.50;79.80
44121;DHT22;29783;52.504;13.478;2022-12-26T19:25:06;8.50;78.70
44121;DHT22;29783;52.504;13.478;2022-12-26T19:27:32;8.50;78.40
44121;DHT22;29783;52.504;13.478;2022-12-26T19:29:58;8.50;78.30